sensor_id;sensor_type;location;lat;lon;timestamp;P1;durP1;ratioP1;P2;durP2;ratioP2
60919;SDS011;59039;52.108;19.942;2023-10-13T00:00:17;42.20;;;19.20;;
60919;SDS011;59039;52.108;19.942;2023-10-13T00:02:42;37.10;;;19.10;;
60919;SDS011;59039;52.108;19.942;2023-10-13T00:05:07;42.60;;;18.70;;
60919;SDS011;59039;52.108;19.942;2023-10-13T00:07:33;41.30;;;17.60;;
60919;SDS011;59039;52.108;19.942;2023-10-13T00:09:58;39.80;;;18.60;;
60919;SDS011;59039;52.108;19.942;2023-10-13T00:12:23;38.60;;;17.40;;
60919;SDS011;59039;52.108;19.942;2023-10-13T00:14:48;42.30;;;19.00;;
60919;SDS011;59039;52.108;19.942;2023-10-13T00:17:14;37.70;;;17.80;;
60919;SDS011;59039;52.108;19.942;2023-10-13T00:19:39;43.60;;;16.90;;
60919;SDS011;59039;52.108;19.942;2023-10-13T00:22:05;44.40;;;16.20;;
60919;SDS011;59039;52.108;19.942;2023-10-13T00:24:31;37.10;;;15.20;;
60919;SDS011;59039;52.108;19.942;2023-10-13T00:26:56;34.70;;;13.20;;
60919;SDS011;59039;52.108;19.942;2023-10-13T00:29:21;35.10;;;15.40;;
60919;SDS011;59039;52.108;19.942;2023-10-13T00:31:46;34.60;;;13.30;;
60919;SDS011;59039;52.108;19.942;2023-10-13T00:34:12;38.00;;;15.50;;
60919;SDS011;59039;52.108;19.942;2023-10-13T00:36:38;38.40;;;15.30;;
60919;SDS011;59039;52.108;19.942;2023-10-13T00:39:03;33.60;;;14.90;;
60919;SDS011;59039;52.108;19.942;2023-10-13T00:41:29;39.60;;;14.30;;
60919;SDS011;59039;52.108;19.942;2023-10-13T00:43:54;31.60;;;15.10;;
60919;SDS011;59039;52.108;19.942;2023-10-13T00:46:19;41.00;;;15.50;;
60919;SDS011;59039;52.108;19.942;2023-10-13T00:48:44;34.10;;;14.70;;
60919;SDS011;59039;52.108;19.942;2023-10-13T00:51:11;33.20;;;14.40;;
60919;SDS011;59039;52.108;19.942;2023-10-13T00:53:37;34.90;;;14.80;;
60919;SDS011;59039;52.108;19.942;2023-10-13T00:56:04;29.90;;;14.30;;
60919;SDS011;59039;52.108;19.942;2023-10-13T00:58:29;36.50;;;14.40;;
60919;SDS011;59039;52.108;19.942;2023-10-13T01:00:54;37.50;;;15.30;;
60919;SDS011;59039;52.108;19.942;2023-10-13T01:03:20;32.00;;;15.90;;
60919;SDS011;59039;52.108;19.942;2023-10-13T01:05:45;35.70;;;14.80;;
60919;SDS011;59039;52.108;19.942;2023-10-13T01:08:10;32.40;;;13.60;;
60919;SDS011;59039;52.108;19.942;2023-10-13T01:10:35;34.40;;;14.10;;
60919;SDS011;59039;52.108;19.942;2023-10-13T01:13:00;35.00;;;14.40;;
60919;SDS011;59039;52.108;19.942;2023-10-13T01:15:26;30.00;;;14.00;;
60919;SDS011;59039;52.108;19.942;2023-10-13T01:17:51;34.10;;;15.20;;
60919;SDS011;59039;52.108;19.942;2023-10-13T01:20:16;37.10;;;13.70;;
60919;SDS011;59039;52.108;19.942;2023-10-13T01:22:41;34.00;;;14.90;;
60919;SDS011;59039;52.108;19.942;2023-10-13T01:25:07;31.80;;;14.30;;
60919;SDS011;59039;52.108;19.942;2023-10-13T01:27:35;29.70;;;14.30;;
60919;SDS011;59039;52.108;19.942;2023-10-13T01:30:01;30.10;;;13.70;;
60919;SDS011;59039;52.108;19.942;2023-10-13T01:32:26;33.60;;;15.30;;
60919;SDS011;59039;52.108;19.942;2023-10-13T01:34:51;33.60;;;14.50;;
60919;SDS011;59039;52.108;19.942;2023-10-13T01:37:17;30.90;;;14.00;;
60919;SDS011;59039;52.108;19.942;2023-10-13T01:39:42;34.80;;;16.10;;
60919;SDS011;59039;52.108;19.942;2023-10-13T01:42:07;27.70;;;14.70;;
60919;SDS011;59039;52.108;19.942;2023-10-13T01:44:32;29.40;;;14.70;;
60919;SDS011;59039;52.108;19.942;2023-10-13T01:46:58;28.90;;;14.90;;
60919;SDS011;59039;52.108;19.942;2023-10-13T01:49:27;29.70;;;14.60;;
60919;SDS011;59039;52.108;19.942;2023-10-13T01:51:52;27.20;;;13.30;;
60919;SDS011;59039;52.108;19.942;2023-10-13T01:54:17;40.40;;;16.00;;
60919;SDS011;59039;52.108;19.942;2023-10-13T01:56:42;30.40;;;13.80;;
60919;SDS011;59039;52.108;19.942;2023-10-13T01:59:08;30.40;;;13.30;;
60919;SDS011;59039;52.108;19.942;2023-10-13T02:01:35;25.70;;;13.10;;
60919;SDS011;59039;52.108;19.942;2023-10-13T02:04:01;25.80;;;13.20;;
60919;SDS011;59039;52.108;19.942;2023-10-13T02:06:27;40.10;;;16.10;;
60919;SDS011;59039;52.108;19.942;2023-10-13T02:08:53;31.40;;;14.00;;
60919;SDS011;59039;52.108;19.942;2023-10-13T02:11:18;30.30;;;13.70;;
60919;SDS011;59039;52.108;19.942;2023-10-13T02:13:43;29.00;;;15.50;;
60919;SDS011;59039;52.108;19.942;2023-10-13T02:16:09;41.50;;;20.00;;
60919;SDS011;59039;52.108;19.942;2023-10-13T02:18:34;44.60;;;17.80;;
60919;SDS011;59039;52.108;19.942;2023-10-13T02:21:02;42.00;;;18.30;;
60919;SDS011;59039;52.108;19.942;2023-10-13T02:23:28;39.80;;;17.80;;
60919;SDS011;59039;52.108;19.942;2023-10-13T02:25:53;41.30;;;17.80;;
60919;SDS011;59039;52.108;19.942;2023-10-13T02:28:19;35.00;;;18.00;;
60919;SDS011;59039;52.108;19.942;2023-10-13T02:30:44;34.00;;;16.60;;
60919;SDS011;59039;52.108;19.942;2023-10-13T02:33:09;36.10;;;15.00;;
60919;SDS011;59039;52.108;19.942;2023-10-13T02:35:39;30.50;;;14.60;;
60919;SDS011;59039;52.108;19.942;2023-10-13T02:38:05;31.80;;;14.90;;
60919;SDS011;59039;52.108;19.942;2023-10-13T02:40:34;33.30;;;15.80;;
60919;SDS011;59039;52.108;19.942;2023-10-13T02:43:00;29.30;;;13.80;;
60919;SDS011;59039;52.108;19.942;2023-10-13T02:45:25;31.30;;;13.90;;
60919;SDS011;59039;52.108;19.942;2023-10-13T02:47:50;28.90;;;13.50;;
60919;SDS011;59039;52.108;19.942;2023-10-13T02:50:16;25.50;;;12.00;;
60919;SDS011;59039;52.108;19.942;2023-10-13T02:52:41;33.90;;;12.50;;
60919;SDS011;59039;52.108;19.942;2023-10-13T02:55:06;31.90;;;11.50;;
60919;SDS011;59039;52.108;19.942;2023-10-13T02:57:32;32.10;;;12.40;;
60919;SDS011;59039;52.108;19.942;2023-10-13T02:59:57;26.70;;;10.30;;
60919;SDS011;59039;52.108;19.942;2023-10-13T03:02:23;37.00;;;11.60;;
60919;SDS011;59039;52.108;19.942;2023-10-13T03:04:48;27.20;;;11.10;;
60919;SDS011;59039;52.108;19.942;2023-10-13T03:07:14;27.30;;;11.80;;
60919;SDS011;59039;52.108;19.942;2023-10-13T03:09:39;28.30;;;12.40;;
60919;SDS011;59039;52.108;19.942;2023-10-13T03:12:05;25.70;;;11.20;;
60919;SDS011;59039;52.108;19.942;2023-10-13T03:14:30;30.30;;;12.20;;
60919;SDS011;59039;52.108;19.942;2023-10-13T03:16:56;25.00;;;10.50;;
60919;SDS011;59039;52.108;19.942;2023-10-13T03:19:22;28.30;;;11.30;;
60919;SDS011;59039;52.108;19.942;2023-10-13T03:21:48;21.90;;;10.10;;
60919;SDS011;59039;52.108;19.942;2023-10-13T03:24:13;27.20;;;12.60;;
60919;SDS011;59039;52.108;19.942;2023-10-13T03:26:38;29.60;;;13.00;;
60919;SDS011;59039;52.108;19.942;2023-10-13T03:29:03;27.20;;;13.40;;
60919;SDS011;59039;52.108;19.942;2023-10-13T03:31:30;30.10;;;12.70;;
60919;SDS011;59039;52.108;19.942;2023-10-13T03:33:56;35.10;;;14.40;;
60919;SDS011;59039;52.108;19.942;2023-10-13T03:36:21;35.10;;;14.90;;
60919;SDS011;59039;52.108;19.942;2023-10-13T03:38:46;34.00;;;15.30;;
60919;SDS011;59039;52.108;19.942;2023-10-13T03:41:11;36.10;;;16.10;;
60919;SDS011;59039;52.108;19.942;2023-10-13T03:43:36;32.70;;;16.20;;
60919;SDS011;59039;52.108;19.942;2023-10-13T03:46:02;36.20;;;19.90;;
60919;SDS011;59039;52.108;19.942;2023-10-13T03:48:27;38.40;;;18.00;;
60919;SDS011;59039;52.108;19.942;2023-10-13T03:50:53;32.90;;;14.10;;
60919;SDS011;59039;52.108;19.942;2023-10-13T03:53:19;29.50;;;12.30;;
60919;SDS011;59039;52.108;19.942;2023-10-13T03:55:44;30.60;;;12.70;;
60919;SDS011;59039;52.108;19.942;2023-10-13T03:58:09;31.80;;;13.70;;
60919;SDS011;59039;52.108;19.942;2023-10-13T04:00:35;31.80;;;13.20;;
60919;SDS011;59039;52.108;19.942;2023-10-13T04:03:00;30.30;;;12.70;;
60919;SDS011;59039;52.108;19.942;2023-10-13T04:05:25;32.80;;;13.00;;
60919;SDS011;59039;52.108;19.942;2023-10-13T04:07:50;29.40;;;12.80;;
60919;SDS011;59039;52.108;19.942;2023-10-13T04:10:15;35.10;;;12.80;;
60919;SDS011;59039;52.108;19.942;2023-10-13T04:12:41;25.80;;;12.60;;
60919;SDS011;59039;52.108;19.942;2023-10-13T04:15:06;29.90;;;12.00;;
60919;SDS011;59039;52.108;19.942;2023-10-13T04:17:32;35.50;;;12.30;;
60919;SDS011;59039;52.108;19.942;2023-10-13T04:19:58;27.80;;;12.70;;
60919;SDS011;59039;52.108;19.942;2023-10-13T04:22:23;27.40;;;12.50;;
60919;SDS011;59039;52.108;19.942;2023-10-13T04:24:48;37.80;;;14.30;;
60919;SDS011;59039;52.108;19.942;2023-10-13T04:27:14;29.70;;;12.50;;
60919;SDS011;59039;52.108;19.942;2023-10-13T04:29:39;27.00;;;11.20;;
60919;SDS011;59039;52.108;19.942;2023-10-13T04:32:04;30.50;;;12.50;;
60919;SDS011;59039;52.108;19.942;2023-10-13T04:34:30;29.70;;;12.40;;
60919;SDS011;59039;52.108;19.942;2023-10-13T04:36:55;24.30;;;11.20;;
60919;SDS011;59039;52.108;19.942;2023-10-13T04:39:20;32.60;;;11.40;;
60919;SDS011;59039;52.108;19.942;2023-10-13T04:41:45;30.70;;;13.30;;
60919;SDS011;59039;52.108;19.942;2023-10-13T04:44:11;27.40;;;11.20;;
60919;SDS011;59039;52.108;19.942;2023-10-13T04:46:38;28.50;;;12.60;;
60919;SDS011;59039;52.108;19.942;2023-10-13T04:49:03;33.30;;;13.30;;
60919;SDS011;59039;52.108;19.942;2023-10-13T04:51:29;31.60;;;12.80;;
60919;SDS011;59039;52.108;19.942;2023-10-13T04:53:54;32.40;;;12.70;;
60919;SDS011;59039;52.108;19.942;2023-10-13T04:56:19;26.30;;;12.20;;
60919;SDS011;59039;52.108;19.942;2023-10-13T04:58:45;33.10;;;12.40;;
60919;SDS011;59039;52.108;19.942;2023-10-13T05:01:10;23.60;;;11.30;;
60919;SDS011;59039;52.108;19.942;2023-10-13T05:03:35;25.20;;;12.60;;
60919;SDS011;59039;52.108;19.942;2023-10-13T05:06:01;28.00;;;12.20;;
60919;SDS011;59039;52.108;19.942;2023-10-13T05:08:26;26.00;;;11.80;;
60919;SDS011;59039;52.108;19.942;2023-10-13T05:10:51;27.00;;;10.50;;
60919;SDS011;59039;52.108;19.942;2023-10-13T05:13:16;31.40;;;10.40;;
60919;SDS011;59039;52.108;19.942;2023-10-13T05:15:46;21.80;;;8.60;;
60919;SDS011;59039;52.108;19.942;2023-10-13T05:18:12;22.00;;;9.50;;
60919;SDS011;59039;52.108;19.942;2023-10-13T05:20:38;25.80;;;9.20;;
60919;SDS011;59039;52.108;19.942;2023-10-13T05:23:03;21.60;;;9.80;;
60919;SDS011;59039;52.108;19.942;2023-10-13T05:25:28;25.00;;;10.60;;
60919;SDS011;59039;52.108;19.942;2023-10-13T05:27:53;24.80;;;9.90;;
60919;SDS011;59039;52.108;19.942;2023-10-13T05:30:18;26.40;;;11.20;;
60919;SDS011;59039;52.108;19.942;2023-10-13T05:32:44;39.40;;;12.00;;
60919;SDS011;59039;52.108;19.942;2023-10-13T05:35:09;22.20;;;8.30;;
60919;SDS011;59039;52.108;19.942;2023-10-13T05:37:34;16.80;;;7.20;;
60919;SDS011;59039;52.108;19.942;2023-10-13T05:40:00;26.40;;;7.60;;
60919;SDS011;59039;52.108;19.942;2023-10-13T05:42:25;36.30;;;11.20;;
60919;SDS011;59039;52.108;19.942;2023-10-13T05:44:50;23.70;;;9.70;;
60919;SDS011;59039;52.108;19.942;2023-10-13T05:47:15;25.30;;;9.00;;
60919;SDS011;59039;52.108;19.942;2023-10-13T05:49:40;24.60;;;8.40;;
60919;SDS011;59039;52.108;19.942;2023-10-13T05:52:06;24.00;;;8.90;;
60919;SDS011;59039;52.108;19.942;2023-10-13T05:54:31;29.70;;;9.40;;
60919;SDS011;59039;52.108;19.942;2023-10-13T05:56:56;24.70;;;7.80;;
60919;SDS011;59039;52.108;19.942;2023-10-13T05:59:21;19.10;;;6.10;;
60919;SDS011;59039;52.108;19.942;2023-10-13T06:01:46;21.60;;;7.30;;
60919;SDS011;59039;52.108;19.942;2023-10-13T06:04:12;18.50;;;6.10;;
60919;SDS011;59039;52.108;19.942;2023-10-13T06:06:37;15.50;;;6.50;;
60919;SDS011;59039;52.108;19.942;2023-10-13T06:09:02;17.50;;;7.60;;
60919;SDS011;59039;52.108;19.942;2023-10-13T06:11:27;19.90;;;6.20;;
60919;SDS011;59039;52.108;19.942;2023-10-13T06:13:53;18.20;;;6.60;;
60919;SDS011;59039;52.108;19.942;2023-10-13T06:16:18;16.00;;;6.30;;
60919;SDS011;59039;52.108;19.942;2023-10-13T06:18:43;18.60;;;7.10;;
60919;SDS011;59039;52.108;19.942;2023-10-13T06:21:08;22.20;;;7.40;;
60919;SDS011;59039;52.108;19.942;2023-10-13T06:23:33;20.20;;;7.00;;
60919;SDS011;59039;52.108;19.942;2023-10-13T06:25:59;19.30;;;7.40;;
60919;SDS011;59039;52.108;19.942;2023-10-13T06:28:24;22.30;;;7.00;;
60919;SDS011;59039;52.108;19.942;2023-10-13T06:30:56;20.20;;;6.90;;
60919;SDS011;59039;52.108;19.942;2023-10-13T06:33:23;20.60;;;7.10;;
60919;SDS011;59039;52.108;19.942;2023-10-13T06:35:49;20.30;;;7.40;;
60919;SDS011;59039;52.108;19.942;2023-10-13T06:38:15;19.90;;;8.00;;
60919;SDS011;59039;52.108;19.942;2023-10-13T06:40:44;24.00;;;8.40;;
60919;SDS011;59039;52.108;19.942;2023-10-13T06:43:10;25.10;;;7.50;;
60919;SDS011;59039;52.108;19.942;2023-10-13T06:45:36;22.60;;;7.40;;
60919;SDS011;59039;52.108;19.942;2023-10-13T06:48:01;17.40;;;7.30;;
60919;SDS011;59039;52.108;19.942;2023-10-13T06:50:26;20.30;;;7.60;;
60919;SDS011;59039;52.108;19.942;2023-10-13T06:52:51;23.30;;;8.10;;
60919;SDS011;59039;52.108;19.942;2023-10-13T06:55:16;16.60;;;7.00;;
60919;SDS011;59039;52.108;19.942;2023-10-13T06:57:42;29.20;;;7.50;;
60919;SDS011;59039;52.108;19.942;2023-10-13T07:00:08;25.40;;;6.80;;
60919;SDS011;59039;52.108;19.942;2023-10-13T07:02:34;26.80;;;8.80;;
60919;SDS011;59039;52.108;19.942;2023-10-13T07:04:59;23.20;;;8.90;;
60919;SDS011;59039;52.108;19.942;2023-10-13T07:07:24;26.10;;;8.80;;
60919;SDS011;59039;52.108;19.942;2023-10-13T07:09:49;18.80;;;9.20;;
60919;SDS011;59039;52.108;19.942;2023-10-13T07:12:15;30.00;;;9.40;;
60919;SDS011;59039;52.108;19.942;2023-10-13T07:14:40;29.80;;;13.60;;
60919;SDS011;59039;52.108;19.942;2023-10-13T07:17:06;30.50;;;9.20;;
60919;SDS011;59039;52.108;19.942;2023-10-13T07:19:31;20.80;;;10.50;;
60919;SDS011;59039;52.108;19.942;2023-10-13T07:21:57;29.40;;;12.10;;
60919;SDS011;59039;52.108;19.942;2023-10-13T07:24:23;29.70;;;14.40;;
60919;SDS011;59039;52.108;19.942;2023-10-13T07:26:48;25.80;;;11.80;;
60919;SDS011;59039;52.108;19.942;2023-10-13T07:29:13;28.70;;;14.40;;
60919;SDS011;59039;52.108;19.942;2023-10-13T07:31:38;27.60;;;13.80;;
60919;SDS011;59039;52.108;19.942;2023-10-13T07:34:04;27.90;;;10.00;;
60919;SDS011;59039;52.108;19.942;2023-10-13T07:36:29;23.10;;;9.30;;
60919;SDS011;59039;52.108;19.942;2023-10-13T07:38:54;24.80;;;10.20;;
60919;SDS011;59039;52.108;19.942;2023-10-13T07:41:20;24.90;;;9.50;;
60919;SDS011;59039;52.108;19.942;2023-10-13T07:43:45;24.40;;;10.20;;
60919;SDS011;59039;52.108;19.942;2023-10-13T07:46:10;30.30;;;12.30;;
60919;SDS011;59039;52.108;19.942;2023-10-13T07:48:36;30.80;;;13.40;;
60919;SDS011;59039;52.108;19.942;2023-10-13T07:51:03;26.90;;;14.10;;
60919;SDS011;59039;52.108;19.942;2023-10-13T07:53:29;29.80;;;14.60;;
60919;SDS011;59039;52.108;19.942;2023-10-13T07:55:54;36.90;;;20.00;;
60919;SDS011;59039;52.108;19.942;2023-10-13T07:58:20;39.10;;;16.50;;
60919;SDS011;59039;52.108;19.942;2023-10-13T08:00:45;34.90;;;13.90;;
60919;SDS011;59039;52.108;19.942;2023-10-13T08:03:11;37.60;;;15.30;;
60919;SDS011;59039;52.108;19.942;2023-10-13T08:05:37;37.10;;;15.10;;
60919;SDS011;59039;52.108;19.942;2023-10-13T08:08:02;40.60;;;15.60;;
60919;SDS011;59039;52.108;19.942;2023-10-13T08:10:27;42.90;;;16.20;;
60919;SDS011;59039;52.108;19.942;2023-10-13T08:12:53;54.20;;;17.20;;
60919;SDS011;59039;52.108;19.942;2023-10-13T08:15:18;39.70;;;17.50;;
60919;SDS011;59039;52.108;19.942;2023-10-13T08:17:43;41.20;;;20.30;;
60919;SDS011;59039;52.108;19.942;2023-10-13T08:20:08;49.80;;;24.20;;
60919;SDS011;59039;52.108;19.942;2023-10-13T08:22:34;57.00;;;27.80;;
60919;SDS011;59039;52.108;19.942;2023-10-13T08:24:59;63.60;;;31.50;;
60919;SDS011;59039;52.108;19.942;2023-10-13T08:27:24;62.90;;;27.30;;
60919;SDS011;59039;52.108;19.942;2023-10-13T08:29:49;44.50;;;20.50;;
60919;SDS011;59039;52.108;19.942;2023-10-13T08:32:14;42.20;;;18.20;;
60919;SDS011;59039;52.108;19.942;2023-10-13T08:34:40;38.20;;;15.10;;
60919;SDS011;59039;52.108;19.942;2023-10-13T08:37:05;36.20;;;16.20;;
60919;SDS011;59039;52.108;19.942;2023-10-13T08:39:31;35.60;;;19.30;;
60919;SDS011;59039;52.108;19.942;2023-10-13T08:41:56;45.80;;;21.20;;
60919;SDS011;59039;52.108;19.942;2023-10-13T08:44:21;36.80;;;18.60;;
60919;SDS011;59039;52.108;19.942;2023-10-13T08:46:49;37.80;;;16.60;;
60919;SDS011;59039;52.108;19.942;2023-10-13T08:49:14;39.40;;;16.90;;
60919;SDS011;59039;52.108;19.942;2023-10-13T08:51:40;38.30;;;16.30;;
60919;SDS011;59039;52.108;19.942;2023-10-13T08:54:06;41.20;;;17.20;;
60919;SDS011;59039;52.108;19.942;2023-10-13T08:56:32;48.60;;;17.10;;
60919;SDS011;59039;52.108;19.942;2023-10-13T08:58:57;38.20;;;16.80;;
60919;SDS011;59039;52.108;19.942;2023-10-13T09:01:26;48.10;;;19.10;;
60919;SDS011;59039;52.108;19.942;2023-10-13T09:03:52;32.70;;;16.80;;
60919;SDS011;59039;52.108;19.942;2023-10-13T09:06:20;36.30;;;16.20;;
60919;SDS011;59039;52.108;19.942;2023-10-13T09:08:46;31.20;;;15.30;;
60919;SDS011;59039;52.108;19.942;2023-10-13T09:11:11;39.00;;;14.30;;
60919;SDS011;59039;52.108;19.942;2023-10-13T09:13:36;46.00;;;15.60;;
60919;SDS011;59039;52.108;19.942;2023-10-13T09:16:08;34.60;;;13.60;;
60919;SDS011;59039;52.108;19.942;2023-10-13T09:18:37;33.80;;;13.80;;
60919;SDS011;59039;52.108;19.942;2023-10-13T09:21:03;36.40;;;14.80;;
60919;SDS011;59039;52.108;19.942;2023-10-13T09:23:28;38.90;;;14.90;;
60919;SDS011;59039;52.108;19.942;2023-10-13T09:25:53;39.80;;;15.00;;
60919;SDS011;59039;52.108;19.942;2023-10-13T09:28:18;38.30;;;15.00;;
60919;SDS011;59039;52.108;19.942;2023-10-13T09:30:45;37.90;;;16.40;;
60919;SDS011;59039;52.108;19.942;2023-10-13T09:33:11;38.50;;;15.00;;
60919;SDS011;59039;52.108;19.942;2023-10-13T09:35:36;41.70;;;17.20;;
60919;SDS011;59039;52.108;19.942;2023-10-13T09:38:03;36.80;;;15.00;;
60919;SDS011;59039;52.108;19.942;2023-10-13T09:40:29;32.30;;;14.60;;
60919;SDS011;59039;52.108;19.942;2023-10-13T09:42:55;36.50;;;13.70;;
60919;SDS011;59039;52.108;19.942;2023-10-13T09:45:20;41.70;;;16.20;;
60919;SDS011;59039;52.108;19.942;2023-10-13T09:47:50;33.40;;;15.00;;
60919;SDS011;59039;52.108;19.942;2023-10-13T09:50:17;39.60;;;14.10;;
60919;SDS011;59039;52.108;19.942;2023-10-13T09:52:44;36.20;;;16.90;;
60919;SDS011;59039;52.108;19.942;2023-10-13T09:55:26;36.20;;;16.70;;
60919;SDS011;59039;52.108;19.942;2023-10-13T09:58:01;42.00;;;19.90;;
60919;SDS011;59039;52.108;19.942;2023-10-13T10:00:31;39.40;;;18.90;;
60919;SDS011;59039;52.108;19.942;2023-10-13T10:02:57;36.00;;;16.90;;
60919;SDS011;59039;52.108;19.942;2023-10-13T10:05:24;38.20;;;15.40;;
60919;SDS011;59039;52.108;19.942;2023-10-13T10:07:56;43.80;;;17.10;;
60919;SDS011;59039;52.108;19.942;2023-10-13T10:10:22;38.90;;;16.10;;
60919;SDS011;59039;52.108;19.942;2023-10-13T10:12:57;40.70;;;16.20;;
60919;SDS011;59039;52.108;19.942;2023-10-13T10:15:36;36.60;;;15.90;;
60919;SDS011;59039;52.108;19.942;2023-10-13T10:18:17;39.50;;;17.80;;
60919;SDS011;59039;52.108;19.942;2023-10-13T10:20:43;37.60;;;19.00;;
60919;SDS011;59039;52.108;19.942;2023-10-13T10:23:08;43.50;;;16.80;;
60919;SDS011;59039;52.108;19.942;2023-10-13T10:25:34;44.70;;;17.10;;
60919;SDS011;59039;52.108;19.942;2023-10-13T10:28:07;40.70;;;18.00;;
60919;SDS011;59039;52.108;19.942;2023-10-13T10:30:35;39.60;;;18.30;;
60919;SDS011;59039;52.108;19.942;2023-10-13T10:33:01;42.50;;;18.10;;
60919;SDS011;59039;52.108;19.942;2023-10-13T10:35:27;37.90;;;18.60;;
60919;SDS011;59039;52.108;19.942;2023-10-13T10:37:52;40.70;;;19.20;;
60919;SDS011;59039;52.108;19.942;2023-10-13T10:40:20;41.10;;;18.50;;
60919;SDS011;59039;52.108;19.942;2023-10-13T10:42:50;40.80;;;18.50;;
60919;SDS011;59039;52.108;19.942;2023-10-13T10:45:16;39.90;;;17.70;;
60919;SDS011;59039;52.108;19.942;2023-10-13T10:47:47;45.40;;;16.80;;
60919;SDS011;59039;52.108;19.942;2023-10-13T10:50:13;40.40;;;18.50;;
60919;SDS011;59039;52.108;19.942;2023-10-13T10:52:38;41.60;;;17.70;;
60919;SDS011;59039;52.108;19.942;2023-10-13T10:55:03;35.30;;;17.10;;
60919;SDS011;59039;52.108;19.942;2023-10-13T10:57:29;44.00;;;18.10;;
60919;SDS011;59039;52.108;19.942;2023-10-13T10:59:54;41.90;;;18.50;;
60919;SDS011;59039;52.108;19.942;2023-10-13T11:02:29;37.90;;;16.80;;
60919;SDS011;59039;52.108;19.942;2023-10-13T11:04:55;36.20;;;15.70;;
60919;SDS011;59039;52.108;19.942;2023-10-13T11:07:21;45.40;;;16.30;;
60919;SDS011;59039;52.108;19.942;2023-10-13T11:09:49;36.30;;;16.00;;
60919;SDS011;59039;52.108;19.942;2023-10-13T11:12:14;42.30;;;16.50;;
60919;SDS011;59039;52.108;19.942;2023-10-13T11:14:40;40.50;;;17.30;;
60919;SDS011;59039;52.108;19.942;2023-10-13T11:17:07;29.80;;;15.30;;
60919;SDS011;59039;52.108;19.942;2023-10-13T11:19:36;33.40;;;16.40;;
60919;SDS011;59039;52.108;19.942;2023-10-13T11:22:15;39.20;;;16.20;;
60919;SDS011;59039;52.108;19.942;2023-10-13T11:24:41;39.50;;;15.80;;
60919;SDS011;59039;52.108;19.942;2023-10-13T11:27:13;38.70;;;17.00;;
60919;SDS011;59039;52.108;19.942;2023-10-13T11:29:41;37.60;;;16.00;;
60919;SDS011;59039;52.108;19.942;2023-10-13T11:32:07;31.70;;;16.00;;
60919;SDS011;59039;52.108;19.942;2023-10-13T11:34:32;38.60;;;16.80;;
60919;SDS011;59039;52.108;19.942;2023-10-13T11:36:57;32.80;;;15.30;;
60919;SDS011;59039;52.108;19.942;2023-10-13T11:39:23;36.00;;;15.50;;
60919;SDS011;59039;52.108;19.942;2023-10-13T11:41:49;41.00;;;19.10;;
60919;SDS011;59039;52.108;19.942;2023-10-13T11:44:14;47.70;;;18.60;;
60919;SDS011;59039;52.108;19.942;2023-10-13T11:46:39;34.80;;;15.30;;
60919;SDS011;59039;52.108;19.942;2023-10-13T11:49:05;37.80;;;15.80;;
60919;SDS011;59039;52.108;19.942;2023-10-13T11:51:32;37.30;;;15.90;;
60919;SDS011;59039;52.108;19.942;2023-10-13T11:53:57;35.10;;;14.20;;
60919;SDS011;59039;52.108;19.942;2023-10-13T11:56:23;40.60;;;15.70;;
60919;SDS011;59039;52.108;19.942;2023-10-13T11:58:49;38.30;;;16.20;;
60919;SDS011;59039;52.108;19.942;2023-10-13T12:01:15;41.40;;;16.30;;
60919;SDS011;59039;52.108;19.942;2023-10-13T12:03:44;32.10;;;14.60;;
60919;SDS011;59039;52.108;19.942;2023-10-13T12:06:11;38.40;;;16.60;;
60919;SDS011;59039;52.108;19.942;2023-10-13T12:08:36;35.80;;;16.00;;
60919;SDS011;59039;52.108;19.942;2023-10-13T12:11:01;29.80;;;14.80;;
60919;SDS011;59039;52.108;19.942;2023-10-13T12:13:27;37.70;;;15.80;;
60919;SDS011;59039;52.108;19.942;2023-10-13T12:15:52;33.80;;;14.80;;
60919;SDS011;59039;52.108;19.942;2023-10-13T12:18:17;48.80;;;16.50;;
60919;SDS011;59039;52.108;19.942;2023-10-13T12:20:42;29.10;;;14.60;;
60919;SDS011;59039;52.108;19.942;2023-10-13T12:23:07;36.80;;;15.20;;
60919;SDS011;59039;52.108;19.942;2023-10-13T12:25:33;40.80;;;15.90;;
60919;SDS011;59039;52.108;19.942;2023-10-13T12:27:59;34.40;;;16.20;;
60919;SDS011;59039;52.108;19.942;2023-10-13T12:30:25;40.90;;;16.50;;
60919;SDS011;59039;52.108;19.942;2023-10-13T12:32:50;38.50;;;16.80;;
60919;SDS011;59039;52.108;19.942;2023-10-13T12:35:15;36.00;;;15.20;;
60919;SDS011;59039;52.108;19.942;2023-10-13T12:37:41;33.70;;;15.50;;
60919;SDS011;59039;52.108;19.942;2023-10-13T12:40:06;33.40;;;15.70;;
60919;SDS011;59039;52.108;19.942;2023-10-13T12:42:33;33.10;;;14.50;;
60919;SDS011;59039;52.108;19.942;2023-10-13T12:44:58;32.90;;;15.20;;
60919;SDS011;59039;52.108;19.942;2023-10-13T12:47:23;34.00;;;18.20;;
60919;SDS011;59039;52.108;19.942;2023-10-13T12:49:48;40.40;;;15.90;;
60919;SDS011;59039;52.108;19.942;2023-10-13T12:52:14;38.10;;;16.40;;
60919;SDS011;59039;52.108;19.942;2023-10-13T12:54:39;38.70;;;16.00;;
60919;SDS011;59039;52.108;19.942;2023-10-13T12:57:04;35.00;;;15.00;;
60919;SDS011;59039;52.108;19.942;2023-10-13T12:59:30;35.80;;;16.90;;
60919;SDS011;59039;52.108;19.942;2023-10-13T13:01:55;34.80;;;17.10;;
60919;SDS011;59039;52.108;19.942;2023-10-13T13:04:20;31.90;;;16.80;;
60919;SDS011;59039;52.108;19.942;2023-10-13T13:06:49;41.80;;;19.40;;
60919;SDS011;59039;52.108;19.942;2023-10-13T13:09:15;42.40;;;19.00;;
60919;SDS011;59039;52.108;19.942;2023-10-13T13:11:41;35.50;;;19.70;;
60919;SDS011;59039;52.108;19.942;2023-10-13T13:14:06;38.10;;;20.30;;
60919;SDS011;59039;52.108;19.942;2023-10-13T13:16:32;37.40;;;19.40;;
60919;SDS011;59039;52.108;19.942;2023-10-13T13:18:57;37.90;;;18.10;;
60919;SDS011;59039;52.108;19.942;2023-10-13T13:21:22;33.00;;;16.70;;
60919;SDS011;59039;52.108;19.942;2023-10-13T13:23:48;34.50;;;14.70;;
60919;SDS011;59039;52.108;19.942;2023-10-13T13:26:16;43.80;;;16.60;;
60919;SDS011;59039;52.108;19.942;2023-10-13T13:28:42;37.30;;;16.70;;
60919;SDS011;59039;52.108;19.942;2023-10-13T13:31:07;34.20;;;18.20;;
60919;SDS011;59039;52.108;19.942;2023-10-13T13:33:33;35.50;;;17.70;;
60919;SDS011;59039;52.108;19.942;2023-10-13T13:35:58;34.30;;;16.30;;
60919;SDS011;59039;52.108;19.942;2023-10-13T13:38:24;41.30;;;16.40;;
60919;SDS011;59039;52.108;19.942;2023-10-13T13:40:49;27.20;;;14.40;;
60919;SDS011;59039;52.108;19.942;2023-10-13T13:43:15;29.40;;;13.50;;
60919;SDS011;59039;52.108;19.942;2023-10-13T13:45:40;28.10;;;13.40;;
60919;SDS011;59039;52.108;19.942;2023-10-13T13:48:06;30.90;;;13.90;;
60919;SDS011;59039;52.108;19.942;2023-10-13T13:50:31;24.10;;;13.60;;
60919;SDS011;59039;52.108;19.942;2023-10-13T13:52:56;27.00;;;13.20;;
60919;SDS011;59039;52.108;19.942;2023-10-13T13:55:22;27.80;;;12.90;;
60919;SDS011;59039;52.108;19.942;2023-10-13T13:57:49;27.50;;;13.20;;
60919;SDS011;59039;52.108;19.942;2023-10-13T14:00:14;25.80;;;12.00;;
60919;SDS011;59039;52.108;19.942;2023-10-13T14:02:40;34.30;;;12.20;;